Pagina principale
METAR-TAF:

METAR-TAF

Aeroporti :

Monte Argentario, Italia

latitudine: 42-23N, longitudine: 011-10E, altezza: 630 m

Osservazione

Il bollettino è stato emesso 1 ora e 22 minuti fa, alle 14:55 UTC
Vento 8 kt da nord
Temperature 20°C
Umidità 30%
Pressione 1015 hPa
Visibilità 10 km o più
Poco nuvoloso ad un'altezza di 400 ft, Cumulonembo.

METAR: LIQO 311455Z 36008KT 9999 FEW004CB 20/02 Q1015 RMK FEW VAL NIL NC VIS MIN 9999

Ora: 18:17 (16:17 UTC)


TAF: mancante

Osservazioni e previsioni meteorologiche di più di 4000 aeroporti (messaggi METAR e TAF).

Le stazioni disponibili sono rappresentate dai dischi gialli e rossi sulla carta.

Puntare il mouse per vedere il nome della stazione.

Clicca sopra per visualizzare le osservazioni e previsioni meteorologiche.

Per cambiare la mappa : fare clic sui pulsanti verdi con una croce nera per ingrandire, il pulsante verde con un trattino per diminuire, o sulla freccia verde per le mappe adiacenti.


METAR-TAF: